createdAt,value
2019-05-28T00:00:47.000Z,11.89
2019-05-28T00:01:47.000Z,11.85
2019-05-28T00:02:48.000Z,11.88
2019-05-28T00:03:48.000Z,11.93
2019-05-28T00:04:48.000Z,11.93
2019-05-28T00:05:48.000Z,11.84
2019-05-28T00:06:48.000Z,11.82
2019-05-28T00:07:48.000Z,11.85
2019-05-28T00:08:48.000Z,11.82
2019-05-28T00:09:48.000Z,11.78
2019-05-28T00:10:48.000Z,11.74
2019-05-28T00:11:48.000Z,11.78
2019-05-28T00:12:48.000Z,11.77
2019-05-28T00:13:48.000Z,11.78
2019-05-28T00:14:48.000Z,11.77
2019-05-28T00:15:48.000Z,11.79
2019-05-28T00:16:48.000Z,11.70
2019-05-28T00:17:48.000Z,11.75
2019-05-28T00:18:48.000Z,11.73
2019-05-28T00:19:48.000Z,11.66
2019-05-28T00:20:48.000Z,11.65
2019-05-28T00:21:48.000Z,11.62
2019-05-28T00:22:48.000Z,11.59
2019-05-28T00:23:48.000Z,11.57
2019-05-28T00:24:48.000Z,11.63
2019-05-28T00:25:48.000Z,11.67
2019-05-28T00:26:48.000Z,11.67
2019-05-28T00:27:48.000Z,11.65
2019-05-28T00:28:48.000Z,11.62
2019-05-28T00:29:48.000Z,11.58
2019-05-28T00:30:48.000Z,11.72
2019-05-28T00:31:48.000Z,11.68
2019-05-28T00:32:48.000Z,11.64
2019-05-28T00:33:47.000Z,11.72
2019-05-28T00:34:47.000Z,11.65
2019-05-28T00:35:47.000Z,11.73
2019-05-28T00:36:47.000Z,11.81
2019-05-28T00:37:47.000Z,11.73
2019-05-28T00:38:47.000Z,11.75
2019-05-28T00:39:47.000Z,11.73
2019-05-28T00:40:47.000Z,11.70
2019-05-28T00:41:47.000Z,11.66
2019-05-28T00:42:47.000Z,11.72
2019-05-28T00:43:47.000Z,11.74
2019-05-28T00:44:47.000Z,11.69
2019-05-28T00:45:47.000Z,11.71
2019-05-28T00:46:47.000Z,11.86
2019-05-28T00:47:47.000Z,11.88
2019-05-28T00:48:47.000Z,11.80
2019-05-28T00:49:47.000Z,11.75
2019-05-28T00:50:47.000Z,11.86
2019-05-28T00:51:47.000Z,11.92
2019-05-28T00:52:47.000Z,11.90
2019-05-28T00:53:47.000Z,11.86
2019-05-28T00:54:47.000Z,11.95
2019-05-28T00:55:47.000Z,11.91
2019-05-28T00:56:47.000Z,11.86
2019-05-28T00:57:47.000Z,11.86
2019-05-28T00:58:47.000Z,11.88
2019-05-28T00:59:47.000Z,11.83
2019-05-28T01:00:47.000Z,11.84
2019-05-28T01:01:47.000Z,11.76
2019-05-28T01:02:47.000Z,11.77
2019-05-28T01:03:47.000Z,11.79
2019-05-28T01:04:47.000Z,11.80
2019-05-28T01:05:47.000Z,11.79
2019-05-28T01:06:47.000Z,11.82
2019-05-28T01:07:47.000Z,11.84
2019-05-28T01:08:47.000Z,11.77
2019-05-28T01:09:47.000Z,11.87
2019-05-28T01:10:47.000Z,11.88
2019-05-28T01:11:47.000Z,11.82
2019-05-28T01:12:47.000Z,11.89
2019-05-28T01:13:47.000Z,11.96
2019-05-28T01:14:47.000Z,11.87
2019-05-28T01:15:47.000Z,12.01
2019-05-28T01:16:47.000Z,11.98
2019-05-28T01:17:47.000Z,12.02
2019-05-28T01:18:47.000Z,11.94
2019-05-28T01:19:47.000Z,11.92
2019-05-28T01:20:47.000Z,11.97
2019-05-28T01:21:47.000Z,11.92
2019-05-28T01:22:47.000Z,11.89
2019-05-28T01:23:47.000Z,11.89
2019-05-28T01:24:47.000Z,11.93
2019-05-28T01:25:47.000Z,11.94
2019-05-28T01:26:47.000Z,11.93
2019-05-28T01:27:47.000Z,11.88
2019-05-28T01:28:47.000Z,11.88
2019-05-28T01:29:47.000Z,11.83
2019-05-28T01:30:47.000Z,11.84
2019-05-28T01:31:47.000Z,11.82
2019-05-28T01:32:47.000Z,11.80
2019-05-28T01:33:47.000Z,11.89
2019-05-28T01:34:47.000Z,11.84
2019-05-28T01:35:47.000Z,11.82
2019-05-28T01:36:47.000Z,11.83
2019-05-28T01:37:47.000Z,11.82
2019-05-28T01:38:47.000Z,11.85
2019-05-28T01:39:47.000Z,11.79
2019-05-28T01:40:47.000Z,11.79
2019-05-28T01:41:47.000Z,11.86
2019-05-28T01:42:47.000Z,11.86
2019-05-28T01:43:47.000Z,11.90
2019-05-28T01:44:47.000Z,11.85
2019-05-28T01:45:47.000Z,11.89
2019-05-28T01:46:47.000Z,11.89
2019-05-28T01:47:47.000Z,11.91
2019-05-28T01:48:47.000Z,11.97
2019-05-28T01:49:47.000Z,11.93
2019-05-28T01:50:47.000Z,11.89
2019-05-28T01:51:47.000Z,11.91
2019-05-28T01:52:47.000Z,11.85
2019-05-28T01:53:47.000Z,11.93
2019-05-28T01:54:47.000Z,11.93
2019-05-28T01:55:47.000Z,11.93
2019-05-28T01:56:47.000Z,11.94
2019-05-28T01:57:47.000Z,11.90
2019-05-28T01:58:47.000Z,11.92
2019-05-28T01:59:47.000Z,11.91
2019-05-28T02:00:47.000Z,12.01
2019-05-28T02:01:47.000Z,11.93
2019-05-28T02:02:47.000Z,11.90
2019-05-28T02:03:47.000Z,11.93
2019-05-28T02:04:47.000Z,12.02
2019-05-28T02:05:47.000Z,12.05
2019-05-28T02:06:47.000Z,12.02
2019-05-28T02:07:47.000Z,12.10
2019-05-28T02:08:47.000Z,12.06
2019-05-28T02:09:47.000Z,12.05
2019-05-28T02:10:47.000Z,11.96
2019-05-28T02:11:47.000Z,12.06
2019-05-28T02:12:47.000Z,12.00
2019-05-28T02:13:47.000Z,12.19
2019-05-28T02:14:47.000Z,12.10
2019-05-28T02:15:47.000Z,12.10
2019-05-28T02:16:47.000Z,12.03
2019-05-28T02:17:47.000Z,12.06
2019-05-28T02:18:47.000Z,12.08
2019-05-28T02:19:47.000Z,12.05
2019-05-28T02:20:47.000Z,12.01
2019-05-28T02:21:47.000Z,11.98
2019-05-28T02:22:47.000Z,11.96
2019-05-28T02:23:47.000Z,12.00
2019-05-28T02:24:47.000Z,11.98
2019-05-28T02:25:47.000Z,12.02
2019-05-28T02:26:47.000Z,12.07
2019-05-28T02:27:47.000Z,11.98
2019-05-28T02:28:47.000Z,12.01
2019-05-28T02:29:47.000Z,12.12
2019-05-28T02:30:47.000Z,12.11
2019-05-28T02:31:47.000Z,12.15
2019-05-28T02:32:47.000Z,12.05
2019-05-28T02:33:47.000Z,12.12
2019-05-28T02:34:47.000Z,12.12
2019-05-28T02:35:47.000Z,12.06
2019-05-28T02:36:47.000Z,11.95
2019-05-28T02:37:47.000Z,11.94
2019-05-28T02:38:47.000Z,11.98
2019-05-28T02:39:47.000Z,12.06
2019-05-28T02:40:47.000Z,12.00
2019-05-28T02:41:47.000Z,11.99
2019-05-28T02:42:47.000Z,12.11
2019-05-28T02:43:47.000Z,12.02
2019-05-28T02:44:47.000Z,11.94
2019-05-28T02:45:47.000Z,11.90
2019-05-28T02:46:47.000Z,11.92
2019-05-28T02:47:47.000Z,11.86
2019-05-28T02:48:47.000Z,11.92
2019-05-28T02:49:47.000Z,11.97
2019-05-28T02:50:47.000Z,11.89
2019-05-28T02:51:47.000Z,11.96
2019-05-28T02:52:47.000Z,11.89
2019-05-28T02:53:47.000Z,11.85
2019-05-28T02:54:47.000Z,11.87
2019-05-28T02:55:47.000Z,11.85
2019-05-28T02:56:47.000Z,11.87
2019-05-28T02:57:47.000Z,11.83
2019-05-28T02:58:47.000Z,11.83
2019-05-28T02:59:47.000Z,11.83
2019-05-28T03:00:47.000Z,11.81
2019-05-28T03:01:47.000Z,11.84
2019-05-28T03:02:47.000Z,11.92
2019-05-28T03:03:47.000Z,12.03
2019-05-28T03:04:47.000Z,11.95
2019-05-28T03:05:47.000Z,12.00
2019-05-28T03:06:47.000Z,12.06
2019-05-28T03:07:47.000Z,11.95
2019-05-28T03:08:47.000Z,11.95
2019-05-28T03:09:47.000Z,11.88
2019-05-28T03:10:47.000Z,11.90
2019-05-28T03:11:47.000Z,11.90
2019-05-28T03:12:47.000Z,11.90
2019-05-28T03:13:47.000Z,11.87
2019-05-28T03:14:47.000Z,11.90
2019-05-28T03:15:47.000Z,11.88
2019-05-28T03:16:47.000Z,11.87
2019-05-28T03:17:47.000Z,11.86
2019-05-28T03:18:47.000Z,12.03
2019-05-28T03:19:47.000Z,11.97
2019-05-28T03:20:47.000Z,11.89
2019-05-28T03:21:47.000Z,11.97
2019-05-28T03:22:47.000Z,11.89
2019-05-28T03:23:47.000Z,11.86
2019-05-28T03:24:47.000Z,11.95
2019-05-28T03:25:47.000Z,11.84
2019-05-28T03:26:47.000Z,11.87
2019-05-28T03:27:47.000Z,11.87
2019-05-28T03:28:47.000Z,11.96
2019-05-28T03:29:47.000Z,11.86
2019-05-28T03:30:47.000Z,11.87
2019-05-28T03:31:47.000Z,11.85
2019-05-28T03:32:47.000Z,11.90
2019-05-28T03:33:47.000Z,11.92
2019-05-28T03:34:47.000Z,11.88
2019-05-28T03:35:47.000Z,12.02
2019-05-28T03:36:47.000Z,11.87
2019-05-28T03:37:47.000Z,11.80
2019-05-28T03:38:47.000Z,11.89
2019-05-28T03:39:47.000Z,11.82
2019-05-28T03:40:47.000Z,11.80
2019-05-28T03:41:47.000Z,11.82
2019-05-28T03:42:47.000Z,11.78
2019-05-28T03:43:47.000Z,11.82
2019-05-28T03:44:47.000Z,11.75
2019-05-28T03:45:47.000Z,11.74
2019-05-28T03:46:47.000Z,11.72
2019-05-28T03:47:47.000Z,11.74
2019-05-28T03:48:47.000Z,11.76
2019-05-28T03:49:47.000Z,11.78
2019-05-28T03:50:47.000Z,11.80
2019-05-28T03:51:47.000Z,11.78
2019-05-28T03:52:47.000Z,11.74
2019-05-28T03:53:47.000Z,11.73
2019-05-28T03:54:47.000Z,11.73
2019-05-28T03:55:47.000Z,11.75
2019-05-28T03:56:47.000Z,11.71
2019-05-28T03:57:47.000Z,11.71
2019-05-28T03:58:47.000Z,11.70
2019-05-28T03:59:47.000Z,11.71
2019-05-28T04:00:47.000Z,11.73
2019-05-28T04:01:47.000Z,11.71
2019-05-28T04:02:47.000Z,11.72
2019-05-28T04:03:47.000Z,11.62
2019-05-28T04:04:47.000Z,11.65
2019-05-28T04:05:47.000Z,11.64
2019-05-28T04:06:47.000Z,11.64
2019-05-28T04:07:47.000Z,11.64
2019-05-28T04:08:47.000Z,11.63
2019-05-28T04:09:47.000Z,11.64
2019-05-28T04:10:47.000Z,11.64
2019-05-28T04:11:47.000Z,11.66
2019-05-28T04:12:47.000Z,11.72
2019-05-28T04:13:47.000Z,11.69
2019-05-28T04:14:47.000Z,11.70
2019-05-28T04:15:47.000Z,11.70
2019-05-28T04:16:47.000Z,11.69
2019-05-28T04:17:47.000Z,11.69
2019-05-28T04:18:47.000Z,11.72
2019-05-28T04:19:48.000Z,11.71
2019-05-28T04:20:47.000Z,11.66
2019-05-28T04:21:47.000Z,11.68
2019-05-28T04:22:47.000Z,11.67
2019-05-28T04:23:47.000Z,11.61
2019-05-28T04:24:47.000Z,11.61
2019-05-28T04:25:47.000Z,11.60
2019-05-28T04:26:47.000Z,11.57
2019-05-28T04:27:47.000Z,11.55
2019-05-28T04:28:47.000Z,11.52
2019-05-28T04:29:47.000Z,11.50
2019-05-28T04:30:47.000Z,11.51
2019-05-28T04:31:47.000Z,11.51
2019-05-28T04:32:47.000Z,11.48
2019-05-28T04:33:47.000Z,11.49
2019-05-28T04:34:47.000Z,11.46
2019-05-28T04:35:47.000Z,11.46
2019-05-28T04:36:47.000Z,11.44
2019-05-28T04:37:47.000Z,11.47
2019-05-28T04:38:47.000Z,11.49
2019-05-28T04:39:47.000Z,11.47
2019-05-28T04:40:47.000Z,11.46
2019-05-28T04:41:47.000Z,11.49
2019-05-28T04:42:47.000Z,11.46
2019-05-28T04:43:48.000Z,11.45
2019-05-28T04:44:47.000Z,11.43
2019-05-28T04:45:47.000Z,11.43
2019-05-28T04:46:47.000Z,11.46
2019-05-28T04:47:47.000Z,11.47
2019-05-28T04:48:47.000Z,11.44
2019-05-28T04:49:47.000Z,11.45
2019-05-28T04:50:47.000Z,11.44
2019-05-28T04:51:47.000Z,11.43
2019-05-28T04:52:47.000Z,11.40
2019-05-28T04:53:47.000Z,11.39
2019-05-28T04:54:47.000Z,11.36
2019-05-28T04:55:47.000Z,11.35
2019-05-28T04:56:47.000Z,11.34
2019-05-28T04:57:47.000Z,11.34
2019-05-28T04:58:47.000Z,11.34
2019-05-28T04:59:47.000Z,11.33
2019-05-28T05:00:47.000Z,11.27
2019-05-28T05:01:47.000Z,11.24
2019-05-28T05:02:47.000Z,11.26
2019-05-28T05:03:47.000Z,11.25
2019-05-28T05:04:47.000Z,11.24
2019-05-28T05:05:47.000Z,11.27
2019-05-28T05:06:47.000Z,11.25
2019-05-28T05:07:47.000Z,11.26
2019-05-28T05:08:47.000Z,11.25
2019-05-28T05:09:47.000Z,11.26
2019-05-28T05:10:47.000Z,11.25
2019-05-28T05:11:47.000Z,11.27
2019-05-28T05:12:47.000Z,11.24
2019-05-28T05:13:47.000Z,11.21
2019-05-28T05:14:47.000Z,11.27
2019-05-28T05:15:47.000Z,11.29
2019-05-28T05:16:47.000Z,11.24
2019-05-28T05:17:47.000Z,11.23
2019-05-28T05:18:47.000Z,11.22
2019-05-28T05:19:47.000Z,11.23
2019-05-28T05:20:47.000Z,11.26
2019-05-28T05:21:47.000Z,11.26
2019-05-28T05:22:47.000Z,11.24
2019-05-28T05:23:47.000Z,11.19
2019-05-28T05:24:47.000Z,11.22
2019-05-28T05:25:47.000Z,11.24
2019-05-28T05:26:47.000Z,11.27
2019-05-28T05:27:47.000Z,11.24
2019-05-28T05:28:47.000Z,11.26
2019-05-28T05:29:48.000Z,11.27
2019-05-28T05:30:47.000Z,11.28
2019-05-28T05:31:47.000Z,11.29
2019-05-28T05:32:47.000Z,11.28
2019-05-28T05:33:47.000Z,11.30
2019-05-28T05:34:47.000Z,11.30
2019-05-28T05:35:47.000Z,11.36
2019-05-28T05:36:47.000Z,11.38
2019-05-28T05:37:47.000Z,11.34
2019-05-28T05:38:47.000Z,11.34
2019-05-28T05:39:47.000Z,11.36
2019-05-28T05:40:47.000Z,11.37
2019-05-28T05:41:47.000Z,11.31
2019-05-28T05:42:47.000Z,11.30
2019-05-28T05:43:47.000Z,11.30
2019-05-28T05:44:47.000Z,11.28
2019-05-28T05:45:47.000Z,11.25
2019-05-28T05:46:47.000Z,11.23
2019-05-28T05:47:47.000Z,11.28
2019-05-28T05:48:47.000Z,11.30
2019-05-28T05:49:47.000Z,11.31
2019-05-28T05:50:47.000Z,11.27
2019-05-28T05:51:47.000Z,11.27
2019-05-28T05:52:47.000Z,11.26
2019-05-28T05:53:47.000Z,11.31
2019-05-28T05:54:47.000Z,11.33
2019-05-28T05:55:47.000Z,11.44
2019-05-28T05:56:47.000Z,11.38
2019-05-28T05:57:47.000Z,11.35
2019-05-28T05:58:47.000Z,11.36
2019-05-28T05:59:47.000Z,11.31
2019-05-28T06:00:47.000Z,11.34
2019-05-28T06:01:47.000Z,11.36
2019-05-28T06:02:47.000Z,11.33
2019-05-28T06:03:47.000Z,11.28
2019-05-28T06:04:47.000Z,11.29
2019-05-28T06:05:47.000Z,11.27
2019-05-28T06:06:47.000Z,11.26
2019-05-28T06:07:47.000Z,11.30
2019-05-28T06:08:47.000Z,11.27
2019-05-28T06:09:47.000Z,11.30
2019-05-28T06:10:47.000Z,11.30
2019-05-28T06:11:47.000Z,11.32
2019-05-28T06:12:47.000Z,11.34
2019-05-28T06:13:47.000Z,11.35
2019-05-28T06:14:47.000Z,11.33
2019-05-28T06:15:47.000Z,11.30
2019-05-28T06:16:47.000Z,11.28
2019-05-28T06:17:47.000Z,11.33
2019-05-28T06:18:47.000Z,11.35
2019-05-28T06:19:47.000Z,11.34
2019-05-28T06:20:47.000Z,11.32
2019-05-28T06:21:47.000Z,11.37
2019-05-28T06:22:47.000Z,11.28
2019-05-28T06:23:47.000Z,11.34
2019-05-28T06:24:47.000Z,11.38
2019-05-28T06:25:47.000Z,11.39
2019-05-28T06:26:47.000Z,11.26
2019-05-28T06:27:47.000Z,11.26
2019-05-28T06:28:47.000Z,11.31
2019-05-28T06:29:47.000Z,11.35
2019-05-28T06:30:47.000Z,11.32
2019-05-28T06:31:47.000Z,11.34
2019-05-28T06:32:47.000Z,11.37
2019-05-28T06:33:47.000Z,11.35
2019-05-28T06:34:47.000Z,11.36
2019-05-28T06:35:47.000Z,11.40
2019-05-28T06:36:47.000Z,11.35
2019-05-28T06:37:47.000Z,11.39
2019-05-28T06:38:47.000Z,11.47
2019-05-28T06:39:47.000Z,11.46
2019-05-28T06:40:47.000Z,11.41
2019-05-28T06:41:47.000Z,11.40
2019-05-28T06:42:47.000Z,11.45
2019-05-28T06:43:47.000Z,11.50
2019-05-28T06:44:47.000Z,11.41
2019-05-28T06:45:47.000Z,11.39
2019-05-28T06:46:47.000Z,11.42
2019-05-28T06:47:47.000Z,11.39
2019-05-28T06:48:47.000Z,11.39
2019-05-28T06:49:47.000Z,11.40
2019-05-28T06:50:47.000Z,11.47
2019-05-28T06:51:47.000Z,11.45
2019-05-28T06:52:47.000Z,11.48
2019-05-28T06:53:47.000Z,11.44
2019-05-28T06:54:47.000Z,11.46
2019-05-28T06:55:47.000Z,11.44
2019-05-28T06:56:47.000Z,11.46
2019-05-28T06:57:47.000Z,11.51
2019-05-28T06:58:47.000Z,11.48
2019-05-28T06:59:47.000Z,11.48
2019-05-28T07:00:47.000Z,11.42
2019-05-28T07:01:47.000Z,11.46
2019-05-28T07:02:47.000Z,11.45
2019-05-28T07:03:47.000Z,11.48
2019-05-28T07:04:47.000Z,11.48
2019-05-28T07:05:47.000Z,11.48
2019-05-28T07:06:47.000Z,11.47
2019-05-28T07:07:47.000Z,11.46
2019-05-28T07:08:47.000Z,11.50
2019-05-28T07:09:47.000Z,11.52
2019-05-28T07:10:47.000Z,11.48
2019-05-28T07:11:47.000Z,11.55
2019-05-28T07:12:47.000Z,11.57
2019-05-28T07:13:47.000Z,11.57
2019-05-28T07:14:47.000Z,11.56
2019-05-28T07:15:47.000Z,11.49
2019-05-28T07:16:47.000Z,11.62
2019-05-28T07:17:47.000Z,11.62
2019-05-28T07:18:47.000Z,11.72
2019-05-28T07:19:47.000Z,11.72
2019-05-28T07:20:47.000Z,11.70
2019-05-28T07:21:47.000Z,11.63
2019-05-28T07:22:47.000Z,11.64
2019-05-28T07:23:47.000Z,11.68
2019-05-28T07:24:47.000Z,11.68
2019-05-28T07:25:47.000Z,11.71
2019-05-28T07:26:47.000Z,11.69
2019-05-28T07:27:47.000Z,11.70
2019-05-28T07:28:47.000Z,11.73
2019-05-28T07:29:47.000Z,11.69
2019-05-28T07:30:47.000Z,11.72
2019-05-28T07:31:47.000Z,11.69
2019-05-28T07:32:47.000Z,11.73
2019-05-28T07:33:47.000Z,11.71
2019-05-28T07:34:47.000Z,11.66
2019-05-28T07:35:47.000Z,11.66
2019-05-28T07:36:47.000Z,11.68
2019-05-28T07:37:47.000Z,11.64
2019-05-28T07:38:47.000Z,11.62
2019-05-28T07:39:47.000Z,11.58
2019-05-28T07:40:47.000Z,11.60
2019-05-28T07:41:47.000Z,11.62
2019-05-28T07:42:47.000Z,11.61
2019-05-28T07:43:47.000Z,11.61
2019-05-28T07:44:47.000Z,11.58
2019-05-28T07:45:47.000Z,11.64
2019-05-28T07:46:47.000Z,11.59
2019-05-28T07:47:47.000Z,11.62
2019-05-28T07:48:47.000Z,11.61
2019-05-28T07:49:47.000Z,11.65
2019-05-28T07:50:47.000Z,11.65
2019-05-28T07:51:47.000Z,11.67
2019-05-28T07:52:47.000Z,11.60
2019-05-28T07:53:47.000Z,11.60
2019-05-28T07:54:47.000Z,11.63
2019-05-28T07:55:47.000Z,11.59
2019-05-28T07:56:47.000Z,11.56
2019-05-28T07:57:47.000Z,11.63
2019-05-28T07:58:47.000Z,11.62
2019-05-28T07:59:47.000Z,11.67
2019-05-28T08:00:47.000Z,11.68
2019-05-28T08:01:47.000Z,11.66
2019-05-28T08:02:47.000Z,11.70
2019-05-28T08:03:47.000Z,11.69
2019-05-28T08:04:47.000Z,11.72
2019-05-28T08:05:47.000Z,11.69
2019-05-28T08:06:47.000Z,11.68
2019-05-28T08:07:47.000Z,11.71
2019-05-28T08:08:47.000Z,11.77
2019-05-28T08:09:47.000Z,11.78
2019-05-28T08:10:47.000Z,11.74
2019-05-28T08:11:47.000Z,11.75
2019-05-28T08:12:47.000Z,11.75
2019-05-28T08:13:47.000Z,11.74
2019-05-28T08:14:47.000Z,11.73
2019-05-28T08:15:47.000Z,11.71
2019-05-28T08:16:47.000Z,11.68
2019-05-28T08:17:47.000Z,11.67
2019-05-28T08:18:47.000Z,11.64
2019-05-28T08:19:47.000Z,11.65
2019-05-28T08:20:47.000Z,11.64
2019-05-28T08:21:47.000Z,11.58
2019-05-28T08:22:48.000Z,11.57
2019-05-28T08:23:47.000Z,11.51
2019-05-28T08:24:47.000Z,11.48
2019-05-28T08:25:47.000Z,11.48
2019-05-28T08:26:47.000Z,11.45
2019-05-28T08:27:47.000Z,11.43
2019-05-28T08:28:47.000Z,11.37
2019-05-28T08:29:47.000Z,11.40
2019-05-28T08:30:47.000Z,11.43
2019-05-28T08:31:47.000Z,11.37
2019-05-28T08:32:47.000Z,11.33
2019-05-28T08:33:47.000Z,11.30
2019-05-28T08:34:47.000Z,11.36
2019-05-28T08:35:47.000Z,11.35
2019-05-28T08:36:47.000Z,11.39
2019-05-28T08:37:47.000Z,11.42
2019-05-28T08:38:47.000Z,11.41
2019-05-28T08:39:47.000Z,11.41
2019-05-28T08:40:47.000Z,11.45
2019-05-28T08:41:47.000Z,11.44
2019-05-28T08:42:47.000Z,11.46
2019-05-28T08:43:47.000Z,11.52
2019-05-28T08:44:47.000Z,11.66
2019-05-28T08:45:47.000Z,11.57
2019-05-28T08:46:47.000Z,11.57
2019-05-28T08:47:47.000Z,11.54
2019-05-28T08:48:47.000Z,11.57
2019-05-28T08:49:47.000Z,11.67
2019-05-28T08:50:47.000Z,11.63
2019-05-28T08:51:47.000Z,11.55
2019-05-28T08:52:47.000Z,11.60
2019-05-28T08:53:47.000Z,11.72
2019-05-28T08:54:47.000Z,11.71
2019-05-28T08:55:47.000Z,11.65
2019-05-28T08:56:47.000Z,11.48
2019-05-28T08:57:47.000Z,11.47
2019-05-28T08:58:47.000Z,11.44
2019-05-28T08:59:47.000Z,11.33
2019-05-28T09:00:47.000Z,11.36
2019-05-28T09:01:47.000Z,11.43
2019-05-28T09:02:47.000Z,11.41
2019-05-28T09:03:47.000Z,11.41
2019-05-28T09:04:47.000Z,11.35
2019-05-28T09:05:47.000Z,11.36
2019-05-28T09:06:48.000Z,11.44
2019-05-28T09:07:47.000Z,11.46
2019-05-28T09:08:47.000Z,11.45
2019-05-28T09:09:47.000Z,11.46
2019-05-28T09:10:47.000Z,11.47
2019-05-28T09:11:47.000Z,11.48
2019-05-28T09:12:47.000Z,11.38
2019-05-28T09:13:47.000Z,11.30
2019-05-28T09:14:47.000Z,11.24
2019-05-28T09:15:47.000Z,11.28
2019-05-28T09:16:47.000Z,11.43
2019-05-28T09:17:47.000Z,11.28
2019-05-28T09:18:47.000Z,11.31
2019-05-28T09:19:47.000Z,11.16
2019-05-28T09:20:47.000Z,11.21
2019-05-28T09:21:47.000Z,11.15
2019-05-28T09:22:47.000Z,11.16
2019-05-28T09:23:47.000Z,11.15
2019-05-28T09:24:47.000Z,11.10
2019-05-28T09:25:47.000Z,11.03
2019-05-28T09:26:47.000Z,11.08
2019-05-28T09:27:47.000Z,11.00
2019-05-28T09:28:47.000Z,11.14
2019-05-28T09:29:47.000Z,11.09
2019-05-28T09:30:47.000Z,11.17
2019-05-28T09:31:47.000Z,10.97
2019-05-28T09:32:47.000Z,10.89
2019-05-28T09:33:47.000Z,10.88
2019-05-28T09:34:47.000Z,10.95
2019-05-28T09:35:47.000Z,10.93
2019-05-28T09:36:47.000Z,10.86
2019-05-28T09:37:47.000Z,10.93
2019-05-28T09:38:47.000Z,11.06
2019-05-28T09:39:47.000Z,11.04
2019-05-28T09:40:47.000Z,10.98
2019-05-28T09:41:47.000Z,11.05
2019-05-28T09:42:47.000Z,11.15
2019-05-28T09:43:47.000Z,11.08
2019-05-28T09:44:47.000Z,11.04
2019-05-28T09:45:47.000Z,11.00
2019-05-28T09:46:47.000Z,11.02
2019-05-28T09:47:47.000Z,11.06
2019-05-28T09:48:47.000Z,11.07
2019-05-28T09:49:47.000Z,11.09
2019-05-28T09:50:47.000Z,10.85
2019-05-28T09:51:47.000Z,10.86
2019-05-28T09:52:47.000Z,10.93
2019-05-28T09:53:47.000Z,10.86
2019-05-28T09:54:47.000Z,10.71
2019-05-28T09:55:47.000Z,10.88
2019-05-28T09:56:47.000Z,10.75
2019-05-28T09:57:47.000Z,10.62
2019-05-28T09:58:47.000Z,10.63
2019-05-28T09:59:47.000Z,10.70
2019-05-28T10:00:47.000Z,10.78
2019-05-28T10:01:47.000Z,10.74
2019-05-28T10:02:47.000Z,10.80
2019-05-28T10:03:47.000Z,10.81
2019-05-28T10:04:47.000Z,10.77
2019-05-28T10:05:47.000Z,10.79
2019-05-28T10:06:47.000Z,10.64
2019-05-28T10:07:47.000Z,10.77
2019-05-28T10:08:47.000Z,10.81
2019-05-28T10:09:47.000Z,10.76
2019-05-28T10:10:47.000Z,10.87
2019-05-28T10:11:47.000Z,10.87
2019-05-28T10:12:47.000Z,10.67
2019-05-28T10:13:47.000Z,10.70
2019-05-28T10:14:47.000Z,10.44
2019-05-28T10:15:47.000Z,10.53
2019-05-28T10:16:47.000Z,10.67
2019-05-28T10:17:47.000Z,10.56
2019-05-28T10:18:47.000Z,10.46
2019-05-28T10:19:47.000Z,10.44
2019-05-28T10:20:47.000Z,10.36
2019-05-28T10:21:47.000Z,10.03
2019-05-28T10:22:47.000Z,10.19
2019-05-28T10:23:47.000Z,9.93
2019-05-28T10:24:47.000Z,9.96
2019-05-28T10:25:47.000Z,9.84
2019-05-28T10:26:47.000Z,9.63
2019-05-28T10:27:47.000Z,9.92
2019-05-28T10:28:47.000Z,9.98
2019-05-28T10:29:47.000Z,9.75
2019-05-28T10:30:47.000Z,9.69
2019-05-28T10:31:47.000Z,9.76
2019-05-28T10:32:47.000Z,9.90
2019-05-28T10:33:47.000Z,9.66
2019-05-28T10:34:47.000Z,9.78
2019-05-28T10:35:47.000Z,9.64
2019-05-28T10:36:47.000Z,9.44
2019-05-28T10:37:47.000Z,9.55
2019-05-28T10:38:47.000Z,9.33
2019-05-28T10:39:47.000Z,9.31
2019-05-28T10:40:47.000Z,9.27
2019-05-28T10:41:47.000Z,9.44
2019-05-28T10:42:47.000Z,9.41
2019-05-28T10:43:47.000Z,9.44
2019-05-28T10:44:47.000Z,9.32
2019-05-28T10:45:47.000Z,9.42
2019-05-28T10:46:47.000Z,9.34
2019-05-28T10:47:47.000Z,9.54
2019-05-28T10:48:47.000Z,9.75
2019-05-28T10:49:47.000Z,10.00
2019-05-28T10:50:47.000Z,10.04
2019-05-28T10:51:47.000Z,9.90
2019-05-28T10:52:47.000Z,9.81
2019-05-28T10:53:47.000Z,9.83
2019-05-28T10:54:47.000Z,9.79
2019-05-28T10:55:47.000Z,9.43
2019-05-28T10:56:47.000Z,9.43
2019-05-28T10:57:47.000Z,9.61
2019-05-28T10:58:47.000Z,9.47
2019-05-28T10:59:47.000Z,9.68
2019-05-28T11:00:47.000Z,9.60
2019-05-28T11:01:47.000Z,9.42
2019-05-28T11:02:47.000Z,9.52
2019-05-28T11:03:47.000Z,9.60
2019-05-28T11:04:47.000Z,9.72
2019-05-28T11:05:47.000Z,9.51
2019-05-28T11:06:47.000Z,9.61
2019-05-28T11:07:47.000Z,9.71
2019-05-28T11:08:47.000Z,9.76
2019-05-28T11:09:47.000Z,9.17
2019-05-28T11:10:47.000Z,9.10
2019-05-28T11:11:47.000Z,9.47
2019-05-28T11:12:47.000Z,9.23
2019-05-28T11:13:47.000Z,9.36
2019-05-28T11:14:47.000Z,9.14
2019-05-28T11:15:47.000Z,9.16
2019-05-28T11:16:47.000Z,9.52
2019-05-28T11:17:47.000Z,9.33
2019-05-28T11:18:47.000Z,9.52
2019-05-28T11:19:47.000Z,9.56
2019-05-28T11:20:47.000Z,9.56
2019-05-28T11:21:47.000Z,9.36
2019-05-28T11:22:47.000Z,9.56
2019-05-28T11:23:47.000Z,9.46
2019-05-28T11:24:47.000Z,9.36
2019-05-28T11:25:47.000Z,9.30
2019-05-28T11:26:47.000Z,9.39
2019-05-28T11:27:47.000Z,9.27
2019-05-28T11:28:47.000Z,9.32
2019-05-28T11:29:47.000Z,9.49
2019-05-28T11:30:47.000Z,9.59
2019-05-28T11:31:47.000Z,9.43
2019-05-28T11:32:47.000Z,9.49
2019-05-28T11:33:47.000Z,9.47
2019-05-28T11:34:47.000Z,9.26
2019-05-28T11:35:47.000Z,9.23
2019-05-28T11:36:47.000Z,9.43
2019-05-28T11:37:47.000Z,9.48
2019-05-28T11:38:47.000Z,9.38
2019-05-28T11:39:47.000Z,9.58
2019-05-28T11:40:47.000Z,9.49
2019-05-28T11:41:47.000Z,9.50
2019-05-28T11:42:47.000Z,9.61
2019-05-28T11:43:47.000Z,9.61
2019-05-28T11:44:47.000Z,9.60
2019-05-28T11:45:47.000Z,9.46
2019-05-28T11:46:47.000Z,9.63
2019-05-28T11:47:47.000Z,9.27
2019-05-28T11:48:47.000Z,9.22
2019-05-28T11:49:47.000Z,9.08
2019-05-28T11:50:47.000Z,9.11
2019-05-28T11:51:47.000Z,9.09
2019-05-28T11:52:47.000Z,9.12
2019-05-28T11:53:47.000Z,8.94
2019-05-28T11:54:47.000Z,8.99
2019-05-28T11:55:47.000Z,9.06
2019-05-28T11:56:47.000Z,9.07
2019-05-28T11:57:47.000Z,8.96
2019-05-28T11:58:47.000Z,8.93
2019-05-28T11:59:47.000Z,9.16
2019-05-28T12:00:47.000Z,9.05
2019-05-28T12:01:47.000Z,9.14
2019-05-28T12:02:47.000Z,9.40
2019-05-28T12:03:47.000Z,9.54
2019-05-28T12:04:48.000Z,9.52
2019-05-28T12:05:47.000Z,9.25
2019-05-28T12:06:47.000Z,9.30
2019-05-28T12:07:47.000Z,9.75
2019-05-28T12:08:47.000Z,9.93
2019-05-28T12:09:47.000Z,9.64
2019-05-28T12:10:47.000Z,9.78
2019-05-28T12:11:47.000Z,9.70
2019-05-28T12:12:47.000Z,9.93
2019-05-28T12:13:47.000Z,9.86
2019-05-28T12:14:47.000Z,9.74
2019-05-28T12:15:47.000Z,10.45
2019-05-28T12:16:47.000Z,10.47
2019-05-28T12:17:47.000Z,9.91
2019-05-28T12:18:47.000Z,10.06
2019-05-28T12:19:47.000Z,10.28
2019-05-28T12:20:47.000Z,10.45
2019-05-28T12:21:47.000Z,10.42
2019-05-28T12:22:47.000Z,10.48
2019-05-28T12:23:47.000Z,10.57
2019-05-28T12:24:47.000Z,10.41
2019-05-28T12:25:47.000Z,10.17
2019-05-28T12:26:47.000Z,10.19
2019-05-28T12:27:47.000Z,10.21
2019-05-28T12:28:47.000Z,10.13
2019-05-28T12:29:47.000Z,9.91
2019-05-28T12:30:47.000Z,9.75
2019-05-28T12:31:47.000Z,9.51
2019-05-28T12:32:47.000Z,9.69
2019-05-28T12:33:47.000Z,9.79
2019-05-28T12:34:47.000Z,9.97
2019-05-28T12:35:47.000Z,9.67
2019-05-28T12:36:47.000Z,9.66
2019-05-28T12:37:47.000Z,9.43
2019-05-28T12:38:47.000Z,9.53
2019-05-28T12:39:47.000Z,9.26
2019-05-28T12:40:48.000Z,9.40
2019-05-28T12:41:47.000Z,9.34
2019-05-28T12:42:47.000Z,9.14
2019-05-28T12:43:47.000Z,8.91
2019-05-28T12:44:47.000Z,8.91
2019-05-28T12:45:47.000Z,8.67
2019-05-28T12:46:46.000Z,8.65
2019-05-28T12:47:46.000Z,8.84
2019-05-28T12:48:46.000Z,8.97
2019-05-28T12:49:46.000Z,8.49
2019-05-28T12:50:46.000Z,8.39
2019-05-28T12:51:46.000Z,8.42
2019-05-28T12:52:46.000Z,8.15
2019-05-28T12:53:46.000Z,8.14
2019-05-28T12:54:46.000Z,8.17
2019-05-28T12:55:46.000Z,8.09
2019-05-28T12:56:46.000Z,8.21
2019-05-28T12:57:46.000Z,7.92